Brush, Colorado
Current Conditions -  °F | °C
As of 7:15 PM on Friday 24 Oct 2014 (Local Time) from KFMM Reporting Station
Clear Clear  
Wind Chill: 68°   Ceiling: Unl
Heat Index: 68°   Visibility: 10mi
Dew Point: 21°   Wind: 3mph
Humidity: 17%   Direction: 90°E
Pressure: 30.13"   Gusts: NA
Location:  40.26°N, 103.62°W
Report Text: KFMM 250115Z AUTO 09003KT 10SM CLR 20/M06 A3013 RMK AO2 T01981062
Loading
Personal Weather Stations






























Interactive Weather Map
Tropical Storm Tracking
New forecast layout! Learn more

10-Day Weather Forecast

Advertisements
Track Severe Weather on mobile